Terminal Aerodrome Forecast
Issued by NWS

Home | Current Version | Previous Version | Text Only | Print | Product List | Glossary On
Versions: 1 2 3 4 5 6 7 8 9 10 11 12 13 14 15
529
FTUS42 KFFC 242329
TAFRYY
TAF
KRYY 242329Z 2500/2524 29008KT P6SM SCT035 BKN070
     FM250900 30009KT P6SM BKN025
     FM251200 31008KT P6SM BKN015
     FM251500 31011G18KT P6SM BKN030
     FM251800 31012G20KT P6SM BKN050=

USA.gov is the U.S. government's official web portal to all federal, state and local government web resources and services.